createdAt,value
2023-03-23T16:00:38.080Z,19.64
2023-03-23T16:03:51.097Z,19.68
2023-03-23T16:06:57.333Z,19.61
2023-03-23T16:10:00.294Z,19.61
2023-03-23T16:13:02.952Z,19.50
2023-03-23T16:16:14.504Z,19.43
2023-03-23T16:19:18.128Z,19.33
2023-03-23T16:22:21.013Z,19.24
2023-03-23T16:25:24.189Z,19.18
2023-03-23T16:28:27.173Z,19.06
2023-03-23T16:31:29.902Z,19.02
2023-03-23T16:34:33.721Z,18.93
2023-03-23T16:37:37.266Z,18.83
2023-03-23T16:40:41.343Z,18.77
2023-03-23T16:43:44.056Z,18.69
2023-03-23T16:46:46.959Z,18.61
2023-03-23T16:49:51.054Z,18.50
2023-03-23T16:52:54.177Z,18.42
2023-03-23T16:55:57.872Z,18.36
2023-03-23T16:59:01.429Z,18.24
2023-03-23T17:02:04.372Z,18.23
2023-03-23T17:05:11.131Z,18.05
2023-03-23T17:08:14.130Z,17.97
2023-03-23T17:11:17.028Z,18.00
2023-03-23T17:14:20.518Z,17.90
2023-03-23T17:17:24.031Z,17.84
2023-03-23T17:20:26.783Z,17.78
2023-03-23T17:23:29.676Z,17.68
2023-03-23T17:26:33.252Z,17.65
2023-03-23T17:29:36.574Z,17.60
2023-03-23T17:32:39.947Z,17.53
2023-03-23T17:35:46.846Z,17.42
2023-03-23T17:38:51.037Z,17.32
2023-03-23T17:41:54.278Z,17.28
2023-03-23T17:44:57.469Z,17.30
2023-03-23T17:48:00.826Z,17.17
2023-03-23T17:51:04.474Z,17.14
2023-03-23T17:54:08.215Z,17.04
2023-03-23T17:57:11.182Z,16.92
2023-03-23T18:00:16.075Z,16.90
2023-03-23T18:03:20.257Z,16.85
2023-03-23T18:06:23.113Z,16.82
2023-03-23T18:09:26.663Z,16.78
2023-03-23T18:12:29.666Z,16.69
2023-03-23T18:15:33.952Z,16.65
2023-03-23T18:18:37.378Z,16.56
2023-03-23T18:21:40.956Z,16.49
2023-03-23T18:24:43.841Z,16.44
2023-03-23T18:27:47.646Z,16.39
2023-03-23T18:30:52.506Z,16.23
2023-03-23T18:33:56.132Z,16.22
2023-03-23T18:36:59.140Z,16.13
2023-03-23T18:40:03.005Z,16.12
2023-03-23T18:43:06.714Z,16.10
2023-03-23T18:46:10.372Z,16.11
2023-03-23T18:49:13.305Z,16.00
2023-03-23T18:52:17.382Z,15.96
2023-03-23T18:55:21.697Z,15.97
2023-03-23T18:58:25.689Z,15.89
2023-03-23T19:01:28.561Z,15.84
2023-03-23T19:04:33.199Z,15.77
2023-03-23T19:07:36.448Z,15.65
2023-03-23T19:10:42.528Z,15.57
2023-03-23T19:14:00.376Z,15.57
2023-03-23T19:17:06.936Z,15.58
2023-03-23T19:20:14.600Z,15.52
2023-03-23T19:23:23.413Z,15.41
2023-03-23T19:26:37.988Z,15.38
2023-03-23T19:29:41.759Z,15.24
2023-03-23T19:32:44.826Z,15.06
2023-03-23T19:36:05.645Z,14.93
2023-03-23T19:39:11.859Z,14.92
2023-03-23T19:42:18.542Z,14.81
2023-03-23T19:45:22.322Z,14.77
2023-03-23T19:48:26.277Z,14.71
2023-03-23T19:51:30.104Z,14.71
2023-03-23T19:54:33.904Z,14.60
2023-03-23T19:57:42.854Z,14.39
2023-03-23T20:00:46.191Z,14.33
2023-03-23T20:03:49.362Z,14.22
2023-03-23T20:07:04.727Z,14.11
2023-03-23T20:10:13.189Z,14.02
2023-03-23T20:13:16.076Z,14.03
2023-03-23T20:16:19.138Z,13.80
2023-03-23T20:19:22.110Z,13.83
2023-03-23T20:22:26.066Z,13.84
2023-03-23T20:25:29.993Z,13.71
2023-03-23T20:28:33.574Z,13.78
2023-03-23T20:31:40.997Z,13.78
2023-03-23T20:34:48.826Z,13.74
2023-03-23T20:37:52.735Z,13.68
2023-03-23T20:40:57.781Z,13.55
2023-03-23T20:44:00.788Z,13.52
2023-03-23T20:47:06.115Z,13.61
2023-03-23T20:50:10.860Z,13.69
2023-03-23T20:53:14.572Z,13.74
2023-03-23T20:56:17.526Z,13.63
2023-03-23T20:59:21.152Z,13.53
2023-03-23T21:02:30.249Z,13.27
2023-03-23T21:05:33.401Z,13.16
2023-03-23T21:08:38.199Z,13.19
2023-03-23T21:11:42.656Z,13.18
2023-03-23T21:14:45.497Z,13.26
2023-03-23T21:17:48.929Z,13.18
2023-03-23T21:20:52.959Z,13.23
2023-03-23T21:23:57.692Z,13.20
2023-03-23T21:27:03.028Z,13.20
2023-03-23T21:30:07.693Z,13.09
2023-03-23T21:33:11.354Z,13.14
2023-03-23T21:36:14.532Z,13.12
2023-03-23T21:39:19.306Z,13.05
2023-03-23T21:42:30.183Z,13.03
2023-03-23T21:45:33.750Z,13.10
2023-03-23T21:48:41.656Z,13.01
2023-03-23T21:51:44.536Z,13.02
2023-03-23T21:54:47.504Z,12.92
2023-03-23T21:57:50.060Z,12.93
2023-03-23T22:00:54.747Z,12.85
2023-03-23T22:03:58.143Z,12.84
2023-03-23T22:07:01.032Z,12.75
2023-03-23T22:10:04.235Z,12.73
2023-03-23T22:13:07.484Z,12.76
2023-03-23T22:16:13.423Z,12.67
2023-03-23T22:19:16.609Z,12.56
2023-03-23T22:22:19.967Z,12.52
2023-03-23T22:25:22.760Z,12.43
2023-03-23T22:28:26.639Z,12.35
2023-03-23T22:31:32.721Z,12.29
2023-03-23T22:34:35.724Z,12.25
2023-03-23T22:37:38.580Z,12.28
2023-03-23T22:40:42.556Z,12.23
2023-03-23T22:43:45.873Z,12.11
2023-03-23T22:46:48.954Z,12.07
2023-03-23T22:49:51.572Z,12.15
2023-03-23T22:52:54.591Z,12.29
2023-03-23T22:55:57.689Z,12.07
2023-03-23T22:59:00.752Z,12.12
2023-03-23T23:02:04.059Z,12.22
2023-03-23T23:05:07.390Z,12.11
2023-03-23T23:08:13.258Z,12.05
2023-03-23T23:11:19.381Z,11.89
2023-03-23T23:14:21.975Z,11.67
2023-03-23T23:17:26.412Z,11.80
2023-03-23T23:20:29.374Z,11.76
2023-03-23T23:23:34.451Z,11.85
2023-03-23T23:26:37.102Z,11.87
2023-03-23T23:29:40.670Z,11.92
2023-03-23T23:32:44.609Z,12.00
2023-03-23T23:35:47.981Z,11.96
2023-03-23T23:38:50.779Z,12.13
2023-03-23T23:41:53.747Z,12.00
2023-03-23T23:44:56.549Z,11.95
2023-03-23T23:48:00.102Z,11.96
2023-03-23T23:51:02.950Z,11.80
2023-03-23T23:54:06.156Z,11.80
2023-03-23T23:57:09.542Z,11.81
